N731SV KNKX-KMTJ
Flight info
| Callsign | N731SV |
|---|---|
| Flight time | N/A |
| Altitude | 39000 |
| Route | LAKEE3 ADUDE MOMAR Q73 LAKRR Q88 NOOTN J146 DVC |
| Aircraft | B737/M-SDE2E3FGHIRWXY/LB1 |
Departure
| Time | 2026-04-12 21:25 |
|---|---|
| Airport | Miramar Marine Corps Air Station - Mitscher Field (KNKX) |
Arrival
| Time | N/A |
|---|---|
| Airport | Montrose Regional Airport (KMTJ) |
| Time | Latitude | Longitude | Altitude | Speed | Heading |
|---|---|---|---|---|---|
| 2026-04-12 20:50 | 32.87415 | -117.13846 | 469 ft | 0 kts | 254° |
| 2026-04-12 21:11 | 32.87380 | -117.13870 | 469 ft | 12 kts | 182° |
| 2026-04-12 21:12 | 32.87282 | -117.13842 | 466 ft | 12 kts | 148° |
| 2026-04-12 21:12 | 32.87281 | -117.13730 | 468 ft | 19 kts | 75° |
| 2026-04-12 21:12 | 32.87281 | -117.13623 | 465 ft | 11 kts | 141° |
| 2026-04-12 21:12 | 32.87244 | -117.13534 | 464 ft | 18 kts | 74° |
| 2026-04-12 21:13 | 32.87275 | -117.13408 | 466 ft | 11 kts | 75° |
| 2026-04-12 21:13 | 32.87301 | -117.13297 | 463 ft | 17 kts | 74° |
| 2026-04-12 21:13 | 32.87316 | -117.13228 | 466 ft | 5 kts | 76° |
| 2026-04-12 21:13 | 32.87329 | -117.13160 | 463 ft | 12 kts | 78° |
| 2026-04-12 21:14 | 32.87340 | -117.13093 | 466 ft | 0 kts | 76° |
| 2026-04-12 21:14 | 32.87343 | -117.13084 | 464 ft | 4 kts | 71° |
| 2026-04-12 21:14 | 32.87359 | -117.13030 | 463 ft | 10 kts | 69° |
| 2026-04-12 21:14 | 32.87380 | -117.12934 | 467 ft | 12 kts | 75° |
| 2026-04-12 21:15 | 32.87398 | -117.12853 | 467 ft | 2 kts | 75° |
| 2026-04-12 21:15 | 32.87406 | -117.12811 | 467 ft | 8 kts | 86° |
| 2026-04-12 21:15 | 32.87368 | -117.12761 | 466 ft | 5 kts | 163° |
| 2026-04-12 21:15 | 32.87366 | -117.12760 | 466 ft | 0 kts | 163° |
| 2026-04-12 21:23 | 32.87363 | -117.12759 | 466 ft | 2 kts | 163° |
| 2026-04-12 21:24 | 32.87321 | -117.12748 | 464 ft | 9 kts | 175° |
| 2026-04-12 21:24 | 32.87268 | -117.12796 | 461 ft | 8 kts | 250° |
| 2026-04-12 21:24 | 32.87248 | -117.12884 | 463 ft | 22 kts | 255° |
| 2026-04-12 21:24 | 32.87131 | -117.13425 | 462 ft | 116 kts | 255° |
| 2026-04-12 21:25 | 32.86863 | -117.14623 | 728 ft | 176 kts | 255° |
| 2026-04-12 21:25 | 32.86520 | -117.16201 | 1308 ft | 213 kts | 253° |
| 2026-04-12 21:25 | 32.86146 | -117.17919 | 1806 ft | 223 kts | 257° |
| 2026-04-12 21:25 | 32.86012 | -117.19803 | 2119 ft | 238 kts | 273° |
| 2026-04-12 21:26 | 32.86627 | -117.21644 | 2374 ft | 243 kts | 307° |
| 2026-04-12 21:26 | 32.89641 | -117.22458 | 2665 ft | 226 kts | 22° |
| 2026-04-12 21:26 | 32.90960 | -117.21456 | 3044 ft | 230 kts | 28° |
| 2026-04-12 21:27 | 32.92407 | -117.20423 | 3688 ft | 250 kts | 29° |
| 2026-04-12 21:27 | 32.93903 | -117.19297 | 4647 ft | 255 kts | 31° |
| 2026-04-12 21:27 | 32.95434 | -117.18245 | 5741 ft | 259 kts | 25° |
| 2026-04-12 21:27 | 32.97078 | -117.17243 | 6698 ft | 273 kts | 25° |
| 2026-04-12 21:28 | 32.98848 | -117.16306 | 7723 ft | 281 kts | 18° |
| 2026-04-12 21:28 | 33.00684 | -117.15539 | 8881 ft | 286 kts | 15° |
| 2026-04-12 21:28 | 33.02600 | -117.14840 | 10010 ft | 293 kts | 13° |
| 2026-04-12 21:28 | 33.04502 | -117.13830 | 10924 ft | 312 kts | 33° |
| 2026-04-12 21:29 | 33.06005 | -117.11814 | 11408 ft | 342 kts | 64° |
| 2026-04-12 21:29 | 33.06656 | -117.09067 | 12357 ft | 350 kts | 81° |
| 2026-04-12 21:29 | 33.07026 | -117.06420 | 13241 ft | 356 kts | 83° |
| 2026-04-12 21:29 | 33.07402 | -117.03466 | 14220 ft | 365 kts | 83° |
| 2026-04-12 21:30 | 33.07803 | -117.00426 | 14698 ft | 374 kts | 82° |
| 2026-04-12 21:30 | 33.08238 | -116.97349 | 14967 ft | 379 kts | 81° |
| 2026-04-12 21:30 | 33.08698 | -116.94247 | 14976 ft | 382 kts | 81° |
| 2026-04-12 21:30 | 33.09157 | -116.91218 | 14968 ft | 381 kts | 81° |
| 2026-04-12 21:31 | 33.09622 | -116.88153 | 14970 ft | 380 kts | 81° |
| 2026-04-12 21:31 | 33.10090 | -116.85059 | 14973 ft | 380 kts | 81° |
| 2026-04-12 21:31 | 33.10557 | -116.81957 | 14974 ft | 380 kts | 81° |
| 2026-04-12 21:31 | 33.11024 | -116.78847 | 14952 ft | 381 kts | 81° |
| 2026-04-12 21:32 | 33.11490 | -116.75739 | 14969 ft | 381 kts | 81° |
| 2026-04-12 21:32 | 33.11958 | -116.72614 | 14965 ft | 383 kts | 81° |
| 2026-04-12 21:32 | 33.12426 | -116.69477 | 14961 ft | 385 kts | 81° |
| 2026-04-12 21:32 | 33.12896 | -116.66331 | 14958 ft | 386 kts | 81° |
| 2026-04-12 21:33 | 33.13365 | -116.63182 | 14959 ft | 387 kts | 81° |
| 2026-04-12 21:33 | 33.13837 | -116.60010 | 14931 ft | 388 kts | 81° |
| 2026-04-12 21:33 | 33.14253 | -116.56875 | 14919 ft | 387 kts | 85° |
| 2026-04-12 21:33 | 33.14517 | -116.53703 | 14952 ft | 384 kts | 88° |
| 2026-04-12 21:34 | 33.14718 | -116.50508 | 15014 ft | 391 kts | 89° |
| 2026-04-12 21:34 | 33.14911 | -116.47264 | 15820 ft | 396 kts | 88° |
| 2026-04-12 21:34 | 33.15122 | -116.43904 | 16263 ft | 419 kts | 88° |
| 2026-04-12 21:34 | 33.15354 | -116.40359 | 16734 ft | 436 kts | 88° |
| 2026-04-12 21:35 | 33.15610 | -116.36722 | 17499 ft | 443 kts | 87° |
| 2026-04-12 21:35 | 33.15876 | -116.33041 | 18384 ft | 447 kts | 87° |
| 2026-04-12 21:35 | 33.16143 | -116.29322 | 19104 ft | 453 kts | 87° |
| 2026-04-12 21:35 | 33.16410 | -116.25551 | 19806 ft | 458 kts | 88° |
| 2026-04-12 21:36 | 33.16831 | -116.21762 | 20545 ft | 465 kts | 76° |
| 2026-04-12 21:36 | 33.18096 | -116.18256 | 21283 ft | 469 kts | 56° |
| 2026-04-12 21:36 | 33.20156 | -116.15248 | 22000 ft | 469 kts | 39° |
| 2026-04-12 21:36 | 33.22816 | -116.13040 | 22680 ft | 466 kts | 24° |
| 2026-04-12 21:37 | 33.25670 | -116.11180 | 23352 ft | 470 kts | 22° |
| 2026-04-12 21:37 | 33.28584 | -116.09354 | 23885 ft | 476 kts | 22° |
| 2026-04-12 21:37 | 33.31528 | -116.07505 | 24402 ft | 481 kts | 22° |
| 2026-04-12 21:37 | 33.34495 | -116.05608 | 24937 ft | 486 kts | 23° |
| 2026-04-12 21:38 | 33.37474 | -116.03669 | 25461 ft | 490 kts | 23° |
| 2026-04-12 21:38 | 33.40479 | -116.01691 | 25986 ft | 494 kts | 24° |
| 2026-04-12 21:38 | 33.43495 | -115.99695 | 26492 ft | 498 kts | 24° |
| 2026-04-12 21:38 | 33.46538 | -115.97682 | 26991 ft | 502 kts | 23° |
| 2026-04-12 21:39 | 33.49615 | -115.95649 | 27459 ft | 506 kts | 23° |
| 2026-04-12 21:39 | 33.52744 | -115.93706 | 27914 ft | 506 kts | 18° |
| 2026-04-12 21:39 | 33.56002 | -115.92097 | 28364 ft | 507 kts | 14° |
| 2026-04-12 21:39 | 33.59308 | -115.90617 | 28814 ft | 510 kts | 13° |
| 2026-04-12 21:40 | 33.62649 | -115.89154 | 29242 ft | 513 kts | 13° |
| 2026-04-12 21:40 | 33.65964 | -115.87677 | 29660 ft | 517 kts | 14° |
| 2026-04-12 21:40 | 33.69341 | -115.86132 | 30040 ft | 522 kts | 14° |
| 2026-04-12 21:40 | 33.71286 | -115.85228 | 30235 ft | 523 kts | 14° |
| 2026-04-12 21:41 | 33.74688 | -115.83635 | 30547 ft | 527 kts | 15° |
| 2026-04-12 21:41 | 33.78100 | -115.82033 | 30890 ft | 528 kts | 15° |
| 2026-04-12 21:41 | 33.81424 | -115.80423 | 31355 ft | 527 kts | 16° |
| 2026-04-12 21:41 | 33.84807 | -115.78749 | 31850 ft | 525 kts | 16° |
| 2026-04-12 21:42 | 33.88186 | -115.77073 | 32291 ft | 524 kts | 15° |
| 2026-04-12 21:42 | 33.91560 | -115.75411 | 32683 ft | 524 kts | 15° |
| 2026-04-12 21:42 | 33.94943 | -115.73772 | 33055 ft | 524 kts | 14° |
| 2026-04-12 21:42 | 33.98337 | -115.72171 | 33468 ft | 523 kts | 14° |
| 2026-04-12 21:43 | 34.01676 | -115.70612 | 33876 ft | 522 kts | 14° |
| 2026-04-12 21:43 | 34.05066 | -115.69028 | 34241 ft | 522 kts | 14° |
| 2026-04-12 21:43 | 34.08490 | -115.67421 | 34561 ft | 522 kts | 14° |
| 2026-04-12 21:43 | 34.11840 | -115.65841 | 34825 ft | 523 kts | 14° |
| 2026-04-12 21:44 | 34.15226 | -115.64239 | 35111 ft | 524 kts | 14° |
| 2026-04-12 21:44 | 34.18615 | -115.62633 | 35443 ft | 523 kts | 14° |
| 2026-04-12 21:44 | 34.21966 | -115.60881 | 35746 ft | 529 kts | 20° |
| 2026-04-12 21:44 | 34.25182 | -115.58636 | 36017 ft | 535 kts | 26° |
| 2026-04-12 21:45 | 34.28321 | -115.56213 | 36321 ft | 536 kts | 27° |
| 2026-04-12 21:45 | 34.31465 | -115.53783 | 36604 ft | 535 kts | 26° |
| 2026-04-12 21:45 | 34.34621 | -115.51417 | 36885 ft | 534 kts | 24° |
| 2026-04-12 21:45 | 34.37891 | -115.49336 | 37163 ft | 526 kts | 15° |
| 2026-04-12 21:46 | 34.41284 | -115.47825 | 37474 ft | 517 kts | 9° |
| 2026-04-12 21:46 | 34.44655 | -115.46502 | 37800 ft | 515 kts | 8° |
| 2026-04-12 21:46 | 34.48066 | -115.45197 | 38137 ft | 513 kts | 8° |
| 2026-04-12 21:46 | 34.51460 | -115.43885 | 38533 ft | 511 kts | 8° |
| 2026-04-12 21:47 | 34.54833 | -115.42552 | 38875 ft | 509 kts | 9° |
| 2026-04-12 21:47 | 34.58210 | -115.41196 | 38888 ft | 512 kts | 9° |
| 2026-04-12 21:47 | 34.64989 | -115.38438 | 38912 ft | 516 kts | 9° |
| 2026-04-12 21:48 | 34.71799 | -115.35654 | 38905 ft | 515 kts | 9° |
| 2026-04-12 21:48 | 34.78591 | -115.32901 | 38899 ft | 512 kts | 7° |
| 2026-04-12 21:49 | 34.85382 | -115.30895 | 38921 ft | 503 kts | 2° |
| 2026-04-12 21:49 | 34.92232 | -115.29176 | 38916 ft | 503 kts | 1° |
| 2026-04-12 21:50 | 34.99080 | -115.27377 | 38912 ft | 505 kts | 2° |
| 2026-04-12 21:50 | 35.05951 | -115.25501 | 38919 ft | 506 kts | 2° |
| 2026-04-12 21:51 | 35.12829 | -115.23619 | 38917 ft | 507 kts | 3° |
| 2026-04-12 21:51 | 35.19676 | -115.21166 | 38924 ft | 517 kts | 10° |
| 2026-04-12 21:52 | 35.26481 | -115.18206 | 38925 ft | 520 kts | 11° |
| 2026-04-12 21:52 | 35.33069 | -115.15385 | 38923 ft | 520 kts | 10° |
| 2026-04-12 21:53 | 35.39929 | -115.12532 | 38917 ft | 521 kts | 9° |
| 2026-04-12 21:53 | 35.43304 | -115.11130 | 38928 ft | 521 kts | 9° |
| 2026-04-12 21:54 | 35.50005 | -115.07472 | 38918 ft | 538 kts | 26° |
| 2026-04-12 21:54 | 35.55791 | -115.01573 | 38913 ft | 552 kts | 44° |
| 2026-04-12 21:55 | 35.60127 | -114.95417 | 38906 ft | 554 kts | 46° |
| 2026-04-12 21:55 | 35.65175 | -114.88280 | 38900 ft | 554 kts | 45° |
| 2026-04-12 21:56 | 35.70334 | -114.81242 | 38883 ft | 554 kts | 44° |
| 2026-04-12 21:56 | 35.75488 | -114.74200 | 38880 ft | 554 kts | 44° |
| 2026-04-12 21:57 | 35.79770 | -114.68324 | 38870 ft | 554 kts | 45° |
| 2026-04-12 21:57 | 35.84915 | -114.61243 | 38851 ft | 554 kts | 45° |
| 2026-04-12 21:58 | 35.90892 | -114.53002 | 38822 ft | 555 kts | 45° |
| 2026-04-12 21:58 | 35.95167 | -114.47095 | 38818 ft | 555 kts | 45° |
| 2026-04-12 21:59 | 35.99942 | -114.40483 | 38801 ft | 556 kts | 45° |
| 2026-04-12 21:59 | 36.05080 | -114.33356 | 38792 ft | 556 kts | 45° |
| 2026-04-12 22:00 | 36.10122 | -114.26083 | 38796 ft | 558 kts | 50° |
| 2026-04-12 22:00 | 36.14684 | -114.18309 | 38793 ft | 559 kts | 53° |
| 2026-04-12 22:01 | 36.19129 | -114.10412 | 38788 ft | 559 kts | 53° |
| 2026-04-12 22:01 | 36.23617 | -114.02548 | 38787 ft | 559 kts | 53° |
| 2026-04-12 22:02 | 36.28109 | -113.94773 | 38802 ft | 559 kts | 52° |
| 2026-04-12 22:02 | 36.32640 | -113.86933 | 38803 ft | 559 kts | 52° |
| 2026-04-12 22:03 | 36.37160 | -113.79081 | 38806 ft | 559 kts | 52° |
| 2026-04-12 22:03 | 36.41667 | -113.71225 | 38812 ft | 559 kts | 52° |
| 2026-04-12 22:04 | 36.46167 | -113.63363 | 38806 ft | 558 kts | 53° |
| 2026-04-12 22:04 | 36.50627 | -113.55555 | 38800 ft | 558 kts | 53° |
| 2026-04-12 22:05 | 36.54893 | -113.48069 | 38814 ft | 557 kts | 53° |
| 2026-04-12 22:05 | 36.59364 | -113.40206 | 38821 ft | 556 kts | 53° |
| 2026-04-12 22:06 | 36.63370 | -113.32172 | 38807 ft | 556 kts | 66° |
| 2026-04-12 22:06 | 36.66055 | -113.23174 | 38835 ft | 554 kts | 73° |
| 2026-04-12 22:07 | 36.68538 | -113.14095 | 38852 ft | 553 kts | 73° |
| 2026-04-12 22:07 | 36.71059 | -113.05110 | 38886 ft | 553 kts | 72° |
| 2026-04-12 22:08 | 36.73641 | -112.96096 | 38906 ft | 553 kts | 72° |
| 2026-04-12 22:08 | 36.76225 | -112.87080 | 38897 ft | 552 kts | 72° |
| 2026-04-12 22:09 | 36.78646 | -112.78582 | 38889 ft | 551 kts | 72° |
| 2026-04-12 22:09 | 36.81202 | -112.69564 | 38874 ft | 551 kts | 72° |
| 2026-04-12 22:10 | 36.83728 | -112.60616 | 38848 ft | 551 kts | 72° |
| 2026-04-12 22:10 | 36.86270 | -112.51591 | 38850 ft | 550 kts | 72° |
| 2026-04-12 22:11 | 36.88802 | -112.42573 | 38847 ft | 550 kts | 72° |
| 2026-04-12 22:11 | 36.91329 | -112.33574 | 38852 ft | 548 kts | 72° |
| 2026-04-12 22:12 | 36.93847 | -112.24594 | 38848 ft | 547 kts | 72° |
| 2026-04-12 22:12 | 36.96354 | -112.15624 | 38841 ft | 545 kts | 72° |
| 2026-04-12 22:13 | 36.98827 | -112.06744 | 38836 ft | 544 kts | 72° |
| 2026-04-12 22:13 | 37.01303 | -111.97823 | 38819 ft | 543 kts | 72° |
| 2026-04-12 22:14 | 37.03769 | -111.88904 | 38805 ft | 541 kts | 72° |
| 2026-04-12 22:14 | 37.06195 | -111.80105 | 38807 ft | 540 kts | 72° |
| 2026-04-12 22:15 | 37.08623 | -111.71264 | 38819 ft | 540 kts | 72° |
| 2026-04-12 22:15 | 37.11056 | -111.62380 | 38835 ft | 539 kts | 72° |
| 2026-04-12 22:16 | 37.13480 | -111.53497 | 38819 ft | 539 kts | 73° |
| 2026-04-12 22:16 | 37.15898 | -111.44606 | 38822 ft | 539 kts | 73° |
| 2026-04-12 22:17 | 37.18294 | -111.35756 | 38812 ft | 539 kts | 72° |
| 2026-04-12 22:17 | 37.20691 | -111.26893 | 38769 ft | 535 kts | 73° |
| 2026-04-12 22:18 | 37.23064 | -111.18081 | 38749 ft | 531 kts | 73° |
| 2026-04-12 22:18 | 37.25418 | -111.09304 | 38744 ft | 530 kts | 73° |
| 2026-04-12 22:19 | 37.27756 | -111.00556 | 38753 ft | 527 kts | 73° |
| 2026-04-12 22:19 | 37.30065 | -110.91886 | 38743 ft | 526 kts | 73° |
| 2026-04-12 22:20 | 37.32376 | -110.83176 | 38754 ft | 526 kts | 73° |
| 2026-04-12 22:20 | 37.34682 | -110.74457 | 38740 ft | 525 kts | 73° |
| 2026-04-12 22:21 | 37.36962 | -110.65811 | 38747 ft | 525 kts | 73° |
| 2026-04-12 22:21 | 37.39252 | -110.57101 | 38757 ft | 525 kts | 73° |
| 2026-04-12 22:22 | 37.41535 | -110.48380 | 38761 ft | 525 kts | 73° |
| 2026-04-12 22:22 | 37.43813 | -110.39653 | 38765 ft | 526 kts | 73° |
| 2026-04-12 22:23 | 37.46089 | -110.30903 | 38772 ft | 526 kts | 73° |
| 2026-04-12 22:23 | 37.48343 | -110.22207 | 38791 ft | 526 kts | 74° |
| 2026-04-12 22:24 | 37.50608 | -110.13436 | 38797 ft | 527 kts | 73° |
| 2026-04-12 22:24 | 37.52870 | -110.04649 | 38799 ft | 525 kts | 73° |
| 2026-04-12 22:25 | 37.55099 | -109.95965 | 38814 ft | 521 kts | 74° |
| 2026-04-12 22:25 | 37.57335 | -109.87214 | 38856 ft | 527 kts | 74° |
| 2026-04-12 22:26 | 37.59564 | -109.78462 | 38888 ft | 528 kts | 74° |
| 2026-04-12 22:26 | 37.61802 | -109.69650 | 38924 ft | 525 kts | 74° |
| 2026-04-12 22:27 | 37.64014 | -109.60910 | 38966 ft | 522 kts | 74° |
| 2026-04-12 22:27 | 37.66207 | -109.52205 | 38977 ft | 520 kts | 74° |
| 2026-04-12 22:28 | 37.68372 | -109.43585 | 38966 ft | 518 kts | 74° |
| 2026-04-12 22:28 | 37.70539 | -109.34929 | 38944 ft | 518 kts | 75° |
| 2026-04-12 22:29 | 37.72710 | -109.26213 | 38919 ft | 524 kts | 75° |
| 2026-04-12 22:29 | 37.74900 | -109.17401 | 38872 ft | 525 kts | 75° |
| 2026-04-12 22:30 | 37.77081 | -109.08604 | 38845 ft | 525 kts | 75° |
| 2026-04-12 22:30 | 37.79259 | -108.99871 | 38848 ft | 524 kts | 71° |
| 2026-04-12 22:31 | 37.80810 | -108.95707 | 38837 ft | 526 kts | 59° |
| 2026-04-12 22:31 | 37.82920 | -108.91891 | 38160 ft | 532 kts | 47° |
| 2026-04-12 22:31 | 37.85540 | -108.88628 | 37469 ft | 525 kts | 35° |
| 2026-04-12 22:31 | 37.88480 | -108.85945 | 36769 ft | 520 kts | 31° |
| 2026-04-12 22:32 | 37.91452 | -108.83322 | 36022 ft | 519 kts | 31° |
| 2026-04-12 22:32 | 37.94410 | -108.80701 | 35244 ft | 520 kts | 32° |
| 2026-04-12 22:32 | 37.97373 | -108.78050 | 34386 ft | 522 kts | 32° |
| 2026-04-12 22:32 | 38.00298 | -108.75404 | 33442 ft | 525 kts | 32° |
| 2026-04-12 22:33 | 38.03270 | -108.72693 | 32421 ft | 527 kts | 33° |
| 2026-04-12 22:33 | 38.06238 | -108.69971 | 31413 ft | 528 kts | 33° |
| 2026-04-12 22:33 | 38.09213 | -108.67235 | 30362 ft | 528 kts | 33° |
| 2026-04-12 22:33 | 38.12160 | -108.64520 | 29123 ft | 520 kts | 33° |
| 2026-04-12 22:34 | 38.15060 | -108.61845 | 28030 ft | 508 kts | 33° |
| 2026-04-12 22:34 | 38.17883 | -108.59240 | 27137 ft | 494 kts | 33° |
| 2026-04-12 22:34 | 38.20630 | -108.56706 | 26296 ft | 483 kts | 33° |
| 2026-04-12 22:34 | 38.23335 | -108.54212 | 25492 ft | 475 kts | 33° |
| 2026-04-12 22:35 | 38.25994 | -108.51759 | 24700 ft | 471 kts | 33° |
| 2026-04-12 22:35 | 38.28609 | -108.49347 | 23895 ft | 471 kts | 33° |
| 2026-04-12 22:35 | 38.31269 | -108.46891 | 22996 ft | 473 kts | 34° |
| 2026-04-12 22:35 | 38.33928 | -108.44432 | 22061 ft | 470 kts | 34° |
| 2026-04-12 22:36 | 38.36561 | -108.41992 | 21201 ft | 464 kts | 34° |
| 2026-04-12 22:36 | 38.39156 | -108.39585 | 20372 ft | 458 kts | 34° |
| 2026-04-12 22:36 | 38.41715 | -108.37209 | 19554 ft | 453 kts | 34° |
| 2026-04-12 22:36 | 38.43858 | -108.35219 | 18863 ft | 449 kts | 34° |
| 2026-04-12 22:37 | 38.46354 | -108.32897 | 18063 ft | 440 kts | 35° |
| 2026-04-12 22:37 | 38.48797 | -108.30624 | 17162 ft | 430 kts | 35° |
| 2026-04-12 22:37 | 38.51157 | -108.28425 | 16362 ft | 423 kts | 35° |
| 2026-04-12 22:37 | 38.53525 | -108.26219 | 15589 ft | 417 kts | 35° |
| 2026-04-12 22:38 | 38.55848 | -108.24052 | 14838 ft | 409 kts | 35° |
| 2026-04-12 22:38 | 38.58131 | -108.21920 | 14126 ft | 406 kts | 35° |
| 2026-04-12 22:38 | 38.60409 | -108.19793 | 13365 ft | 404 kts | 35° |
| 2026-04-12 22:38 | 38.62673 | -108.17677 | 12572 ft | 401 kts | 36° |
| 2026-04-12 22:39 | 38.64913 | -108.15580 | 11797 ft | 398 kts | 35° |
| 2026-04-12 22:39 | 38.67117 | -108.13468 | 11184 ft | 392 kts | 38° |
| 2026-04-12 22:39 | 38.69078 | -108.11141 | 10936 ft | 374 kts | 47° |
| 2026-04-12 22:40 | 38.71925 | -108.06112 | 10627 ft | 333 kts | 62° |
| 2026-04-12 22:40 | 38.72943 | -108.03538 | 10486 ft | 315 kts | 68° |
| 2026-04-12 22:40 | 38.73755 | -108.01004 | 10356 ft | 300 kts | 72° |
| 2026-04-12 22:40 | 38.74383 | -107.98520 | 10229 ft | 286 kts | 77° |
| 2026-04-12 22:41 | 38.74850 | -107.96104 | 10111 ft | 273 kts | 81° |
| 2026-04-12 22:41 | 38.75161 | -107.93779 | 9985 ft | 258 kts | 88° |
| 2026-04-12 22:41 | 38.75190 | -107.91587 | 9882 ft | 239 kts | 109° |
| 2026-04-12 22:41 | 38.74406 | -107.89899 | 9640 ft | 211 kts | 151° |
| 2026-04-12 22:42 | 38.73133 | -107.89363 | 9413 ft | 184 kts | 186° |
| 2026-04-12 22:42 | 38.71861 | -107.89363 | 9184 ft | 182 kts | 186° |
| 2026-04-12 22:42 | 38.70612 | -107.89348 | 8984 ft | 178 kts | 186° |
| 2026-04-12 22:42 | 38.69389 | -107.89339 | 8824 ft | 176 kts | 187° |
| 2026-04-12 22:43 | 38.68160 | -107.89335 | 8598 ft | 176 kts | 187° |
| 2026-04-12 22:43 | 38.66946 | -107.89329 | 8392 ft | 173 kts | 186° |
| 2026-04-12 22:43 | 38.65749 | -107.89323 | 8187 ft | 172 kts | 187° |
| 2026-04-12 22:43 | 38.64556 | -107.89319 | 7969 ft | 172 kts | 187° |
| 2026-04-12 22:44 | 38.63366 | -107.89313 | 7745 ft | 171 kts | 187° |
| 2026-04-12 22:44 | 38.62192 | -107.89296 | 7548 ft | 171 kts | 182° |
| 2026-04-12 22:44 | 38.61021 | -107.89286 | 7366 ft | 165 kts | 187° |
| 2026-04-12 22:44 | 38.59921 | -107.89301 | 7226 ft | 152 kts | 185° |
| 2026-04-12 22:45 | 38.58898 | -107.89281 | 7086 ft | 146 kts | 182° |
| 2026-04-12 22:45 | 38.57881 | -107.89283 | 6926 ft | 146 kts | 183° |
| 2026-04-12 22:45 | 38.56851 | -107.89294 | 6713 ft | 149 kts | 186° |
| 2026-04-12 22:45 | 38.55808 | -107.89247 | 6516 ft | 151 kts | 181° |
| 2026-04-12 22:46 | 38.54744 | -107.89222 | 6418 ft | 151 kts | 182° |
| 2026-04-12 22:46 | 38.53713 | -107.89210 | 6425 ft | 158 kts | 189° |
| 2026-04-12 22:46 | 38.52590 | -107.89371 | 7072 ft | 169 kts | 194° |
| 2026-04-12 22:46 | 38.51400 | -107.89709 | 7595 ft | 180 kts | 197° |
| 2026-04-12 22:47 | 38.50328 | -107.90122 | 8107 ft | 181 kts | 206° |
| 2026-04-12 22:47 | 38.49288 | -107.91071 | 8554 ft | 193 kts | 229° |
| 2026-04-12 22:47 | 38.48692 | -107.92720 | 8888 ft | 221 kts | 258° |
| 2026-04-12 22:47 | 38.48907 | -107.94729 | 9368 ft | 237 kts | 289° |
| 2026-04-12 22:48 | 38.50002 | -107.96425 | 9760 ft | 264 kts | 312° |
| 2026-04-12 22:48 | 38.51391 | -107.97991 | 9804 ft | 265 kts | 310° |
| 2026-04-12 22:48 | 38.52732 | -107.99588 | 9851 ft | 262 kts | 310° |
| 2026-04-12 22:48 | 38.54034 | -108.01148 | 9874 ft | 259 kts | 310° |
| 2026-04-12 22:49 | 38.55342 | -108.02720 | 9900 ft | 258 kts | 310° |
| 2026-04-12 22:49 | 38.56645 | -108.04282 | 9952 ft | 256 kts | 310° |
| 2026-04-12 22:49 | 38.57944 | -108.05836 | 9979 ft | 256 kts | 310° |
| 2026-04-12 22:49 | 38.59240 | -108.07388 | 9985 ft | 256 kts | 310° |
| 2026-04-12 22:50 | 38.60540 | -108.08950 | 9983 ft | 257 kts | 310° |
| 2026-04-12 22:50 | 38.61840 | -108.10525 | 9982 ft | 258 kts | 310° |
| 2026-04-12 22:50 | 38.63143 | -108.12104 | 10009 ft | 259 kts | 310° |
| 2026-04-12 22:50 | 38.64452 | -108.13687 | 10067 ft | 259 kts | 309° |
| 2026-04-12 22:51 | 38.65746 | -108.15244 | 10109 ft | 259 kts | 310° |
| 2026-04-12 22:51 | 38.67060 | -108.16819 | 10157 ft | 260 kts | 310° |
| 2026-04-12 22:51 | 38.68282 | -108.18498 | 10156 ft | 256 kts | 302° |
| 2026-04-12 22:51 | 38.69359 | -108.20305 | 10159 ft | 255 kts | 300° |
| 2026-04-12 22:52 | 38.70405 | -108.22137 | 10173 ft | 255 kts | 300° |
| 2026-04-12 22:52 | 38.71451 | -108.23976 | 10180 ft | 255 kts | 300° |
| 2026-04-12 22:52 | 38.72491 | -108.25809 | 10195 ft | 254 kts | 298° |
| 2026-04-12 22:52 | 38.73156 | -108.27821 | 10203 ft | 241 kts | 272° |
| 2026-04-12 22:53 | 38.73092 | -108.29923 | 10173 ft | 235 kts | 253° |
| 2026-04-12 22:53 | 38.72506 | -108.31810 | 10178 ft | 230 kts | 236° |
| 2026-04-12 22:53 | 38.71452 | -108.33323 | 10169 ft | 229 kts | 218° |
| 2026-04-12 22:53 | 38.70036 | -108.34264 | 10169 ft | 232 kts | 200° |
| 2026-04-12 22:54 | 38.68424 | -108.34480 | 10189 ft | 238 kts | 180° |
| 2026-04-12 22:54 | 38.66811 | -108.33891 | 10229 ft | 248 kts | 159° |
| 2026-04-12 22:54 | 38.65425 | -108.32491 | 10244 ft | 263 kts | 137° |
| 2026-04-12 22:54 | 38.64547 | -108.30376 | 10271 ft | 279 kts | 112° |
| 2026-04-12 22:55 | 38.64445 | -108.27863 | 10307 ft | 290 kts | 84° |
| 2026-04-12 22:55 | 38.65167 | -108.25437 | 10323 ft | 294 kts | 66° |
| 2026-04-12 22:55 | 38.66004 | -108.23094 | 10408 ft | 293 kts | 69° |
| 2026-04-12 22:55 | 38.66815 | -108.20678 | 10993 ft | 300 kts | 69° |
| 2026-04-12 22:56 | 38.67322 | -108.18130 | 12028 ft | 292 kts | 96° |
| 2026-04-12 22:56 | 38.66813 | -108.15715 | 13024 ft | 278 kts | 125° |
| 2026-04-12 22:56 | 38.65720 | -108.13696 | 13861 ft | 274 kts | 143° |
| 2026-04-12 22:56 | 38.64124 | -108.12502 | 14576 ft | 266 kts | 168° |
| 2026-04-12 22:57 | 38.62251 | -108.12106 | 14825 ft | 282 kts | 186° |
| 2026-04-12 22:57 | 38.60274 | -108.12580 | 14986 ft | 300 kts | 205° |
| 2026-04-12 22:57 | 38.58519 | -108.14047 | 15510 ft | 305 kts | 226° |
| 2026-04-12 22:57 | 38.56939 | -108.15871 | 16190 ft | 312 kts | 211° |
| 2026-04-12 22:58 | 38.54837 | -108.16635 | 16774 ft | 322 kts | 186° |
| 2026-04-12 22:58 | 38.52641 | -108.16120 | 16890 ft | 336 kts | 161° |
| 2026-04-12 22:58 | 38.50732 | -108.14288 | 16923 ft | 356 kts | 135° |
| 2026-04-12 22:58 | 38.49564 | -108.11458 | 16941 ft | 370 kts | 111° |
| 2026-04-12 22:59 | 38.49038 | -108.08226 | 16956 ft | 375 kts | 101° |
| 2026-04-12 22:59 | 38.48895 | -108.04887 | 16982 ft | 378 kts | 94° |
| 2026-04-12 22:59 | 38.48889 | -108.01533 | 16986 ft | 378 kts | 93° |
| 2026-04-12 22:59 | 38.48905 | -107.98185 | 17000 ft | 378 kts | 93° |
| 2026-04-12 23:00 | 38.48926 | -107.94817 | 17006 ft | 382 kts | 93° |
| 2026-04-12 23:00 | 38.48949 | -107.91420 | 17004 ft | 382 kts | 93° |
| 2026-04-12 23:00 | 38.48975 | -107.88102 | 16999 ft | 376 kts | 93° |
| 2026-04-12 23:00 | 38.49004 | -107.84761 | 17001 ft | 377 kts | 93° |
| 2026-04-12 23:01 | 38.49032 | -107.81409 | 17008 ft | 378 kts | 93° |
| 2026-04-12 23:01 | 38.49061 | -107.78049 | 17000 ft | 379 kts | 93° |
| 2026-04-12 23:01 | 38.49090 | -107.74681 | 16986 ft | 379 kts | 93° |
| 2026-04-12 23:01 | 38.49119 | -107.71319 | 16949 ft | 379 kts | 92° |
| 2026-04-12 23:02 | 38.49148 | -107.67958 | 16946 ft | 379 kts | 92° |
| 2026-04-12 23:02 | 38.49174 | -107.64900 | 16938 ft | 379 kts | 92° |
| 2026-04-12 23:02 | 38.49202 | -107.61537 | 16917 ft | 379 kts | 92° |
| 2026-04-12 23:02 | 38.49233 | -107.58168 | 17276 ft | 382 kts | 91° |
| 2026-04-12 23:03 | 38.49856 | -107.54831 | 18179 ft | 394 kts | 64° |
| 2026-04-12 23:03 | 38.51502 | -107.52045 | 19142 ft | 396 kts | 44° |
| 2026-04-12 23:03 | 38.53276 | -107.49330 | 19995 ft | 403 kts | 58° |
| 2026-04-12 23:03 | 38.54489 | -107.46084 | 20821 ft | 408 kts | 74° |
| 2026-04-12 23:04 | 38.55064 | -107.42537 | 21734 ft | 409 kts | 86° |
| 2026-04-12 23:04 | 38.55342 | -107.38961 | 22492 ft | 413 kts | 89° |
| 2026-04-12 23:04 | 38.55575 | -107.35291 | 22846 ft | 414 kts | 89° |
| 2026-04-12 23:04 | 38.55802 | -107.31596 | 22919 ft | 420 kts | 89° |
| 2026-04-12 23:05 | 38.56024 | -107.27879 | 22927 ft | 418 kts | 89° |
| 2026-04-12 23:05 | 38.56243 | -107.24189 | 22936 ft | 416 kts | 90° |
| 2026-04-12 23:05 | 38.56462 | -107.20510 | 22954 ft | 414 kts | 90° |
| 2026-04-12 23:05 | 38.56684 | -107.16846 | 22982 ft | 414 kts | 89° |
| 2026-04-12 23:06 | 38.56908 | -107.13185 | 22991 ft | 414 kts | 90° |
| 2026-04-12 23:06 | 38.57137 | -107.09518 | 23003 ft | 414 kts | 89° |
| 2026-04-12 23:06 | 38.57362 | -107.05894 | 23010 ft | 414 kts | 89° |
| 2026-04-12 23:06 | 38.57590 | -107.02221 | 23016 ft | 415 kts | 89° |
| 2026-04-12 23:07 | 38.57822 | -106.98545 | 23018 ft | 415 kts | 90° |
| 2026-04-12 23:07 | 38.58057 | -106.94864 | 23024 ft | 415 kts | 90° |
| 2026-04-12 23:07 | 38.58295 | -106.91195 | 23019 ft | 415 kts | 89° |
| 2026-04-12 23:07 | 38.58536 | -106.87518 | 23021 ft | 415 kts | 89° |
| 2026-04-12 23:08 | 38.58781 | -106.83847 | 23021 ft | 414 kts | 89° |
| 2026-04-12 23:08 | 38.59023 | -106.80183 | 23019 ft | 414 kts | 89° |
| 2026-04-12 23:08 | 38.59265 | -106.76562 | 22997 ft | 416 kts | 89° |
| 2026-04-12 23:08 | 38.59538 | -106.72798 | 23000 ft | 436 kts | 87° |
| 2026-04-12 23:09 | 38.60067 | -106.69211 | 22971 ft | 456 kts | 77° |
| 2026-04-12 23:09 | 38.61125 | -106.65364 | 22945 ft | 461 kts | 70° |
| 2026-04-12 23:09 | 38.63696 | -106.57866 | 22898 ft | 459 kts | 68° |
| 2026-04-12 23:10 | 38.64808 | -106.54717 | 22876 ft | 459 kts | 68° |